Terminal Aerodrome Forecast
Issued by NWS Binghamton, NY

Home | Current Version | Previous Version | Text Only | Print | Product List | Glossary On
Versions: 1 2 3 4 5 6 7 8 9 10 11 12 13 14 15 16 17 18 19 20
683
FTUS41 KBGM 201727
TAFSYR
TAF
KSYR 201727Z 2018/2118 11008KT P6SM OVC015
      TEMPO 2018/2022 SCT015 OVC070
     FM202200 12005KT 5SM -RA BR OVC015
     FM210300 VRB03KT P6SM SCT008 OVC015
      TEMPO 2109/2113 3SM BR OVC008
     FM211500 24005KT P6SM OVC015=

USA.gov is the U.S. government's official web portal to all federal, state and local government web resources and services.